createdAt,value
2022-11-17T00:00:56.931Z,99.99
2022-11-17T00:01:56.869Z,99.99
2022-11-17T00:02:57.886Z,99.99
2022-11-17T00:03:58.796Z,99.99
2022-11-17T00:04:59.478Z,99.99
2022-11-17T00:05:59.830Z,99.99
2022-11-17T00:07:00.133Z,99.99
2022-11-17T00:08:00.515Z,99.99
2022-11-17T00:09:01.693Z,99.99
2022-11-17T00:10:01.888Z,99.99
2022-11-17T00:11:01.791Z,99.99
2022-11-17T00:12:02.998Z,99.99
2022-11-17T00:13:03.333Z,99.99
2022-11-17T00:14:04.261Z,99.99
2022-11-17T00:15:04.861Z,99.99
2022-11-17T00:16:04.752Z,99.99
2022-11-17T00:17:05.074Z,99.99
2022-11-17T00:18:05.315Z,99.99
2022-11-17T00:19:06.214Z,99.99
2022-11-17T00:20:07.136Z,99.99
2022-11-17T00:21:08.028Z,99.99
2022-11-17T00:22:08.680Z,99.99
2022-11-17T00:23:09.573Z,99.99
2022-11-17T00:24:10.481Z,99.99
2022-11-17T00:25:11.461Z,99.99
2022-11-17T00:26:12.365Z,99.99
2022-11-17T00:27:12.684Z,99.99
2022-11-17T00:28:13.174Z,99.99
2022-11-17T00:29:13.728Z,99.99
2022-11-17T00:30:14.469Z,99.99
2022-11-17T00:31:15.371Z,99.99
2022-11-17T00:32:15.262Z,99.99
2022-11-17T00:33:15.691Z,99.99
2022-11-17T00:34:16.581Z,99.99
2022-11-17T00:35:17.171Z,99.99
2022-11-17T00:36:17.377Z,99.99
2022-11-17T00:37:18.287Z,99.99
2022-11-17T00:38:18.483Z,99.99
2022-11-17T00:39:18.689Z,99.99
2022-11-17T00:40:18.592Z,99.99
2022-11-17T00:41:19.784Z,99.99
2022-11-17T00:42:19.994Z,99.99
2022-11-17T00:43:20.909Z,99.99
2022-11-17T00:44:21.675Z,99.99
2022-11-17T00:45:22.124Z,99.99
2022-11-17T00:46:23.031Z,99.99
2022-11-17T00:47:23.930Z,99.99
2022-11-17T00:48:23.973Z,99.99
2022-11-17T00:49:24.889Z,99.99
2022-11-17T00:50:25.081Z,99.99
2022-11-17T00:51:25.397Z,99.99
2022-11-17T00:52:26.014Z,99.99
2022-11-17T00:53:26.901Z,99.99
2022-11-17T00:54:27.988Z,99.99
2022-11-17T00:55:28.172Z,99.99
2022-11-17T00:56:29.345Z,99.99
2022-11-17T00:57:29.979Z,99.99
2022-11-17T00:58:30.298Z,99.99
2022-11-17T00:59:31.317Z,99.99
2022-11-17T01:00:31.722Z,99.99
2022-11-17T01:01:32.008Z,99.99
2022-11-17T01:02:32.698Z,99.99
2022-11-17T01:03:33.546Z,99.99
2022-11-17T01:04:33.467Z,99.99
2022-11-17T01:05:38.410Z,99.99
2022-11-17T01:06:34.603Z,99.99
2022-11-17T01:07:35.266Z,99.99
2022-11-17T01:08:35.895Z,99.99
2022-11-17T01:09:36.540Z,99.99
2022-11-17T01:10:36.734Z,99.99
2022-11-17T01:11:37.623Z,99.99
2022-11-17T01:12:37.824Z,99.99
2022-11-17T01:13:38.373Z,99.99
2022-11-17T01:14:38.326Z,99.99
2022-11-17T01:15:39.368Z,99.99
2022-11-17T01:16:39.541Z,99.99
2022-11-17T01:17:40.172Z,99.99
2022-11-17T01:18:40.613Z,99.99
2022-11-17T01:19:41.503Z,99.99
2022-11-17T01:20:42.115Z,99.99
2022-11-17T01:21:43.046Z,99.99
2022-11-17T01:22:43.270Z,99.99
2022-11-17T01:23:43.479Z,99.99
2022-11-17T01:24:44.112Z,99.99
2022-11-17T01:25:44.376Z,99.99
2022-11-17T01:26:45.571Z,99.99
2022-11-17T01:27:46.046Z,99.99
2022-11-17T01:28:46.994Z,99.99
2022-11-17T01:29:47.607Z,99.99
2022-11-17T01:30:48.220Z,99.99
2022-11-17T01:31:48.438Z,99.99
2022-11-17T01:32:49.348Z,99.99
2022-11-17T01:33:50.602Z,99.99
2022-11-17T01:34:51.496Z,99.99
2022-11-17T01:35:51.924Z,99.99
2022-11-17T01:36:51.830Z,99.99
2022-11-17T01:37:53.012Z,99.99
2022-11-17T01:38:53.929Z,99.99
2022-11-17T01:39:54.417Z,99.99
2022-11-17T01:40:54.752Z,99.99
2022-11-17T01:41:55.665Z,99.99
2022-11-17T01:42:55.582Z,99.99
2022-11-17T01:43:56.494Z,99.99
2022-11-17T01:44:56.722Z,99.99
2022-11-17T01:45:57.528Z,99.99
2022-11-17T01:47:06.090Z,99.99
2022-11-17T01:47:59.292Z,99.99
2022-11-17T01:48:59.438Z,99.99
2022-11-17T01:50:00.651Z,99.99
2022-11-17T01:51:00.997Z,99.99
2022-11-17T01:52:01.733Z,99.99
2022-11-17T01:53:02.347Z,99.99
2022-11-17T01:54:02.982Z,99.99
2022-11-17T01:55:03.891Z,99.99
2022-11-17T01:56:04.620Z,99.99
2022-11-17T01:57:04.828Z,99.99
2022-11-17T01:58:05.162Z,99.99
2022-11-17T01:59:05.353Z,99.99
2022-11-17T02:00:05.855Z,99.99
2022-11-17T02:01:06.956Z,99.99
2022-11-17T02:02:06.918Z,99.99
2022-11-17T02:03:08.190Z,99.99
2022-11-17T02:04:08.905Z,99.99
2022-11-17T02:05:09.812Z,99.99
2022-11-17T02:06:10.236Z,99.99
2022-11-17T02:07:10.972Z,99.99
2022-11-17T02:08:11.881Z,99.99
2022-11-17T02:09:12.360Z,99.99
2022-11-17T02:10:12.573Z,99.99
2022-11-17T02:11:12.794Z,99.99
2022-11-17T02:12:13.718Z,99.99
2022-11-17T02:13:14.312Z,99.99
2022-11-17T02:14:15.231Z,99.99
2022-11-17T02:15:16.434Z,99.99
2022-11-17T02:16:17.046Z,99.99
2022-11-17T02:17:20.067Z,99.99
2022-11-17T02:18:18.683Z,99.99
2022-11-17T02:19:19.105Z,99.99
2022-11-17T02:20:20.287Z,99.99
2022-11-17T02:21:20.502Z,99.99
2022-11-17T02:22:21.121Z,99.99
2022-11-17T02:23:21.608Z,99.99
2022-11-17T02:24:22.630Z,99.99
2022-11-17T02:25:27.083Z,99.99
2022-11-17T02:26:23.940Z,99.99
2022-11-17T02:27:24.133Z,99.99
2022-11-17T02:28:25.046Z,99.99
2022-11-17T02:29:25.644Z,99.99
2022-11-17T02:30:26.236Z,99.99
2022-11-17T02:31:26.885Z,99.99
2022-11-17T02:32:26.793Z,99.99
2022-11-17T02:33:27.720Z,99.99
2022-11-17T02:34:27.914Z,99.99
2022-11-17T02:35:28.249Z,99.99
2022-11-17T02:36:28.729Z,99.99
2022-11-17T02:37:29.218Z,99.99
2022-11-17T02:38:29.851Z,99.99
2022-11-17T02:39:30.736Z,99.99
2022-11-17T02:40:31.351Z,99.99
2022-11-17T02:41:32.561Z,99.99
2022-11-17T02:42:32.748Z,99.99
2022-11-17T02:43:33.625Z,99.99
2022-11-17T02:44:33.664Z,99.99
2022-11-17T02:45:34.258Z,99.99
2022-11-17T02:46:34.296Z,99.99
2022-11-17T02:47:34.898Z,99.99
2022-11-17T02:48:36.106Z,99.99
2022-11-17T02:49:36.626Z,99.99
2022-11-17T02:50:37.538Z,99.99
2022-11-17T02:51:38.151Z,99.99
2022-11-17T02:52:38.762Z,99.99
2022-11-17T02:53:39.904Z,99.99
2022-11-17T02:54:39.509Z,99.99
2022-11-17T02:55:40.421Z,99.99
2022-11-17T02:56:40.825Z,99.99
2022-11-17T02:57:41.040Z,99.99
2022-11-17T02:58:41.652Z,99.99
2022-11-17T02:59:42.275Z,99.99
2022-11-17T03:00:43.575Z,99.99
2022-11-17T03:01:44.227Z,99.99
2022-11-17T03:02:44.642Z,99.99
2022-11-17T03:03:45.259Z,99.99
2022-11-17T03:04:45.769Z,99.99
2022-11-17T03:05:46.391Z,99.99
2022-11-17T03:06:46.780Z,99.99
2022-11-17T03:07:47.208Z,99.99
2022-11-17T03:08:47.117Z,99.99
2022-11-17T03:09:47.316Z,99.99
2022-11-17T03:10:47.502Z,99.99
2022-11-17T03:11:48.418Z,99.99
2022-11-17T03:12:49.346Z,99.99
2022-11-17T03:13:50.258Z,99.99
2022-11-17T03:14:50.543Z,99.99
2022-11-17T03:15:51.468Z,99.99
2022-11-17T03:16:51.510Z,99.99
2022-11-17T03:17:51.986Z,99.99
2022-11-17T03:18:52.175Z,99.99
2022-11-17T03:19:52.989Z,99.99
2022-11-17T03:20:53.175Z,99.99
2022-11-17T03:21:53.390Z,99.99
2022-11-17T03:22:54.318Z,99.99
2022-11-17T03:23:55.232Z,99.99
2022-11-17T03:24:55.960Z,99.99
2022-11-17T03:25:56.605Z,99.99
2022-11-17T03:26:57.568Z,99.99
2022-11-17T03:27:58.477Z,99.99
2022-11-17T03:28:58.381Z,99.99
2022-11-17T03:29:58.863Z,99.99
2022-11-17T03:30:59.970Z,99.99
2022-11-17T03:32:00.913Z,99.99
2022-11-17T03:33:00.797Z,99.99
2022-11-17T03:34:01.412Z,99.99
2022-11-17T03:35:01.659Z,99.99
2022-11-17T03:36:02.596Z,99.99
2022-11-17T03:37:02.729Z,99.99
2022-11-17T03:38:03.659Z,99.99
2022-11-17T03:39:04.280Z,99.99
2022-11-17T03:40:05.488Z,99.99
2022-11-17T03:41:05.816Z,99.99
2022-11-17T03:42:06.433Z,99.99
2022-11-17T03:43:07.369Z,99.99
2022-11-17T03:44:07.978Z,99.99
2022-11-17T03:45:08.610Z,99.99
2022-11-17T03:46:08.925Z,99.99
2022-11-17T03:47:09.932Z,99.99
2022-11-17T03:48:10.110Z,99.99
2022-11-17T03:49:10.315Z,99.99
2022-11-17T03:50:10.766Z,99.99
2022-11-17T03:51:10.663Z,99.99
2022-11-17T03:52:11.569Z,99.99
2022-11-17T03:53:11.886Z,99.99
2022-11-17T03:54:12.500Z,99.99
2022-11-17T03:55:13.411Z,99.99
2022-11-17T03:56:14.026Z,99.99
2022-11-17T03:57:14.433Z,99.99
2022-11-17T03:58:15.325Z,99.99
2022-11-17T03:59:16.235Z,99.99
2022-11-17T04:00:16.845Z,99.99
2022-11-17T04:01:17.887Z,99.99
2022-11-17T04:02:18.168Z,99.99
2022-11-17T04:03:19.052Z,99.99
2022-11-17T04:04:19.959Z,99.99
2022-11-17T04:05:20.303Z,99.99
2022-11-17T04:06:20.935Z,99.99
2022-11-17T04:07:21.369Z,99.99
2022-11-17T04:08:21.882Z,99.99
2022-11-17T04:09:28.106Z,99.99
2022-11-17T04:10:22.740Z,99.99
2022-11-17T04:11:22.922Z,99.99
2022-11-17T04:12:23.815Z,99.99
2022-11-17T04:13:24.003Z,99.99
2022-11-17T04:14:24.461Z,99.99
2022-11-17T04:15:24.836Z,99.99
2022-11-17T04:16:25.233Z,99.99
2022-11-17T04:17:25.983Z,99.99
2022-11-17T04:18:26.567Z,99.99
2022-11-17T04:19:27.565Z,99.99
2022-11-17T04:20:27.602Z,99.99
2022-11-17T04:21:28.524Z,99.99
2022-11-17T04:22:29.150Z,99.99
2022-11-17T04:23:29.343Z,99.99
2022-11-17T04:24:29.491Z,99.99
2022-11-17T04:25:30.465Z,99.99
2022-11-17T04:26:30.377Z,99.99
2022-11-17T04:27:31.124Z,99.99
2022-11-17T04:28:32.330Z,99.99
2022-11-17T04:29:33.292Z,99.99
2022-11-17T04:30:33.506Z,99.99
2022-11-17T04:31:34.873Z,99.99
2022-11-17T04:32:35.198Z,99.99
2022-11-17T04:33:35.264Z,99.99
2022-11-17T04:34:35.494Z,99.99
2022-11-17T04:35:35.936Z,99.99
2022-11-17T04:36:36.155Z,99.99
2022-11-17T04:37:36.662Z,99.99
2022-11-17T04:38:37.573Z,99.99
2022-11-17T04:39:38.212Z,99.99
2022-11-17T04:40:38.124Z,99.99
2022-11-17T04:41:38.434Z,99.99
2022-11-17T04:42:39.050Z,99.99
2022-11-17T04:43:40.215Z,99.99
2022-11-17T04:44:40.114Z,99.99
2022-11-17T04:45:40.318Z,99.99
2022-11-17T04:46:41.084Z,99.99
2022-11-17T04:47:41.770Z,99.99
2022-11-17T04:48:41.970Z,99.99
2022-11-17T04:49:41.860Z,99.99
2022-11-17T04:50:42.473Z,99.99
2022-11-17T04:51:42.676Z,99.99
2022-11-17T04:52:42.585Z,99.99
2022-11-17T04:53:43.745Z,99.99
2022-11-17T04:54:43.646Z,99.99
2022-11-17T04:55:43.832Z,99.99
2022-11-17T04:56:44.743Z,99.99
2022-11-17T04:57:45.039Z,99.99
2022-11-17T04:58:45.950Z,99.99
2022-11-17T04:59:46.590Z,99.99
2022-11-17T05:00:46.813Z,99.99
2022-11-17T05:01:47.127Z,99.99
2022-11-17T05:02:47.563Z,99.99
2022-11-17T05:03:48.459Z,99.99
2022-11-17T05:04:48.656Z,99.99
2022-11-17T05:05:50.105Z,99.99
2022-11-17T05:06:49.369Z,99.99
2022-11-17T05:07:49.837Z,99.99
2022-11-17T05:08:50.771Z,99.99
2022-11-17T05:09:51.264Z,99.99
2022-11-17T05:10:51.967Z,99.99
2022-11-17T05:11:52.224Z,99.99
2022-11-17T05:12:53.424Z,99.99
2022-11-17T05:13:54.066Z,99.99
2022-11-17T05:14:54.436Z,99.99
2022-11-17T05:15:55.226Z,99.99
2022-11-17T05:16:56.239Z,99.99
2022-11-17T05:17:56.258Z,99.99
2022-11-17T05:18:56.150Z,99.99
2022-11-17T05:19:56.643Z,99.99
2022-11-17T05:20:57.472Z,99.99
2022-11-17T05:21:57.782Z,99.99
2022-11-17T05:23:02.539Z,99.99
2022-11-17T05:23:59.543Z,99.99
2022-11-17T05:25:00.172Z,99.99
2022-11-17T05:26:01.377Z,99.99
2022-11-17T05:27:02.293Z,99.99
2022-11-17T05:28:02.996Z,99.99
2022-11-17T05:29:03.633Z,99.99
2022-11-17T05:30:04.540Z,99.99
2022-11-17T05:31:05.188Z,99.99
2022-11-17T05:32:05.490Z,99.99
2022-11-17T05:33:05.801Z,99.99
2022-11-17T05:34:06.277Z,99.99
2022-11-17T05:35:06.212Z,99.99
2022-11-17T05:36:06.789Z,99.99
2022-11-17T05:37:07.707Z,99.99
2022-11-17T05:38:08.852Z,99.99
2022-11-17T05:39:09.508Z,99.99
2022-11-17T05:40:09.989Z,99.99
2022-11-17T05:41:10.603Z,99.99
2022-11-17T05:42:11.516Z,99.99
2022-11-17T05:43:11.413Z,99.99
2022-11-17T05:44:12.604Z,99.99
2022-11-17T05:45:12.792Z,99.99
2022-11-17T05:46:12.979Z,99.99
2022-11-17T05:47:13.580Z,99.99
2022-11-17T05:48:13.890Z,99.99
2022-11-17T05:49:14.088Z,99.99
2022-11-17T05:50:14.589Z,99.99
2022-11-17T05:51:14.999Z,99.99
2022-11-17T05:52:15.890Z,99.99
2022-11-17T05:53:16.801Z,99.99
2022-11-17T05:54:17.008Z,99.99
2022-11-17T05:55:17.491Z,99.99
2022-11-17T05:56:18.108Z,99.99
2022-11-17T05:57:19.013Z,99.99
2022-11-17T05:58:19.433Z,99.99
2022-11-17T05:59:22.109Z,99.99
2022-11-17T06:00:19.864Z,99.99
2022-11-17T06:01:20.791Z,99.99
2022-11-17T06:02:21.112Z,99.99
2022-11-17T06:03:21.558Z,99.99
2022-11-17T06:04:22.504Z,99.99
2022-11-17T06:05:26.035Z,99.99
2022-11-17T06:06:23.454Z,99.99
2022-11-17T06:07:24.961Z,99.99
2022-11-17T06:08:24.854Z,99.99
2022-11-17T06:09:25.743Z,99.99
2022-11-17T06:10:26.223Z,99.99
2022-11-17T06:11:26.436Z,99.99
2022-11-17T06:12:26.931Z,99.99
2022-11-17T06:13:27.553Z,99.99
2022-11-17T06:14:27.977Z,99.99
2022-11-17T06:15:29.182Z,99.99
2022-11-17T06:16:29.071Z,99.99
2022-11-17T06:17:29.578Z,99.99
2022-11-17T06:18:29.997Z,99.99
2022-11-17T06:19:30.606Z,99.99
2022-11-17T06:20:31.232Z,99.99
2022-11-17T06:21:43.292Z,99.99
2022-11-17T06:22:32.808Z,99.99
2022-11-17T06:23:33.858Z,99.99
2022-11-17T06:24:34.162Z,99.99
2022-11-17T06:25:34.980Z,99.99
2022-11-17T06:26:35.724Z,99.99
2022-11-17T06:27:36.001Z,99.99
2022-11-17T06:28:36.034Z,99.99
2022-11-17T06:29:40.907Z,99.99
2022-11-17T06:30:37.620Z,99.99
2022-11-17T06:31:37.521Z,99.99
2022-11-17T06:32:38.555Z,99.99
2022-11-17T06:33:40.063Z,99.99
2022-11-17T06:34:39.370Z,99.99
2022-11-17T06:35:40.471Z,99.99
2022-11-17T06:36:41.092Z,99.99
2022-11-17T06:37:41.439Z,99.99
2022-11-17T06:38:42.136Z,99.99
2022-11-17T06:39:43.052Z,99.99
2022-11-17T06:40:43.250Z,99.99
2022-11-17T06:41:44.221Z,99.99
2022-11-17T06:42:45.136Z,99.99
2022-11-17T06:43:45.479Z,99.99
2022-11-17T06:44:46.094Z,99.99
2022-11-17T06:45:46.991Z,99.99
2022-11-17T06:46:54.138Z,99.99
2022-11-17T06:47:48.160Z,99.99
2022-11-17T06:48:48.617Z,99.99
2022-11-17T06:49:49.204Z,99.99
2022-11-17T06:50:49.853Z,99.99
2022-11-17T06:51:51.116Z,99.99
2022-11-17T06:52:51.033Z,99.99
2022-11-17T06:53:51.538Z,99.99
2022-11-17T06:54:52.032Z,99.99
2022-11-17T06:55:52.631Z,99.99
2022-11-17T06:56:53.550Z,99.99
2022-11-17T06:57:59.053Z,99.99
2022-11-17T06:58:55.816Z,99.99
2022-11-17T06:59:56.005Z,99.99
2022-11-17T07:00:56.488Z,99.99
2022-11-17T07:01:57.571Z,99.99
2022-11-17T07:02:57.773Z,99.99
2022-11-17T07:03:58.085Z,99.99
2022-11-17T07:04:58.280Z,99.99
2022-11-17T07:05:58.769Z,99.99
2022-11-17T07:06:58.991Z,99.99
2022-11-17T07:07:59.533Z,99.99
2022-11-17T07:08:59.997Z,99.99
2022-11-17T07:10:00.635Z,99.99
2022-11-17T07:11:01.553Z,99.99
2022-11-17T07:12:02.196Z,99.99
2022-11-17T07:13:03.100Z,99.99
2022-11-17T07:14:04.014Z,99.99
2022-11-17T07:15:04.919Z,99.99
2022-11-17T07:16:05.404Z,99.99
2022-11-17T07:17:06.136Z,99.99
2022-11-17T07:18:06.463Z,99.99
2022-11-17T07:19:07.005Z,99.99
2022-11-17T07:20:07.194Z,99.99
2022-11-17T07:21:08.136Z,99.99
2022-11-17T07:22:08.763Z,99.99
2022-11-17T07:23:09.725Z,99.99
2022-11-17T07:24:10.658Z,99.99
2022-11-17T07:25:11.281Z,99.99
2022-11-17T07:26:11.478Z,99.99
2022-11-17T07:27:12.102Z,99.99
2022-11-17T07:28:12.596Z,99.99
2022-11-17T07:29:13.012Z,99.99
2022-11-17T07:30:13.914Z,99.99
2022-11-17T07:31:14.841Z,99.99
2022-11-17T07:32:15.761Z,99.99
2022-11-17T07:33:16.068Z,99.99
2022-11-17T07:34:16.392Z,99.99
2022-11-17T07:35:16.572Z,99.99
2022-11-17T07:36:17.233Z,99.99
2022-11-17T07:37:17.685Z,99.99
2022-11-17T07:38:18.621Z,99.99
2022-11-17T07:39:26.192Z,99.99
2022-11-17T07:40:19.396Z,99.99
2022-11-17T07:41:19.891Z,99.99
2022-11-17T07:42:20.099Z,99.99
2022-11-17T07:43:20.716Z,99.99
2022-11-17T07:44:21.368Z,99.99
2022-11-17T07:45:21.554Z,99.99
2022-11-17T07:46:22.362Z,99.99
2022-11-17T07:47:23.299Z,99.99
2022-11-17T07:48:23.621Z,99.99
2022-11-17T07:49:23.902Z,99.99
2022-11-17T07:50:23.821Z,99.99
2022-11-17T07:51:24.762Z,99.99
2022-11-17T07:52:25.255Z,99.99
2022-11-17T07:53:25.515Z,99.99
2022-11-17T07:54:26.162Z,99.99
2022-11-17T07:55:26.652Z,99.99
2022-11-17T07:56:27.598Z,99.99
2022-11-17T07:57:27.798Z,99.99
2022-11-17T07:58:28.713Z,99.99
2022-11-17T07:59:28.859Z,99.99
2022-11-17T08:00:29.178Z,99.99
2022-11-17T08:01:29.718Z,99.99
2022-11-17T08:02:29.825Z,99.99
2022-11-17T08:03:31.194Z,99.99
2022-11-17T08:04:31.210Z,99.99
2022-11-17T08:05:32.104Z,99.99
2022-11-17T08:06:33.254Z,99.99
2022-11-17T08:07:33.813Z,99.99
2022-11-17T08:08:34.685Z,99.99
2022-11-17T08:09:34.852Z,99.99
2022-11-17T08:10:35.808Z,99.99
2022-11-17T08:11:36.006Z,99.99
2022-11-17T08:12:36.507Z,99.99
2022-11-17T08:13:37.418Z,99.99
2022-11-17T08:14:38.377Z,99.99
2022-11-17T08:15:39.408Z,99.99
2022-11-17T08:16:39.493Z,99.99
2022-11-17T08:17:40.591Z,99.99
2022-11-17T08:18:41.429Z,99.99
2022-11-17T08:19:41.396Z,99.99
2022-11-17T08:20:42.619Z,99.99
2022-11-17T08:21:43.305Z,99.99
2022-11-17T08:22:44.062Z,99.99
2022-11-17T08:23:44.997Z,99.99
2022-11-17T08:24:44.863Z,99.99
2022-11-17T08:25:45.321Z,99.99
2022-11-17T08:26:46.147Z,99.99
2022-11-17T08:27:46.097Z,99.99
2022-11-17T08:28:46.643Z,99.99
2022-11-17T08:29:47.503Z,99.99
2022-11-17T08:30:47.424Z,99.99
2022-11-17T08:31:48.414Z,99.99
2022-11-17T08:32:48.608Z,99.99
2022-11-17T08:33:49.339Z,99.99
2022-11-17T08:34:49.545Z,99.99
2022-11-17T08:35:50.041Z,99.99
2022-11-17T08:36:50.012Z,99.99
2022-11-17T08:37:51.157Z,99.99
2022-11-17T08:38:51.475Z,99.99
2022-11-17T08:39:51.626Z,99.99
2022-11-17T08:40:52.147Z,99.99
2022-11-17T08:41:52.648Z,99.99
2022-11-17T08:42:56.207Z,99.99
2022-11-17T08:43:53.358Z,99.99
2022-11-17T08:44:53.806Z,99.99
2022-11-17T08:45:54.440Z,99.99
2022-11-17T08:46:55.114Z,99.99
2022-11-17T08:47:56.431Z,99.99
2022-11-17T08:49:02.550Z,99.99
2022-11-17T08:49:57.291Z,99.99
2022-11-17T08:50:57.922Z,99.99
2022-11-17T08:51:58.877Z,99.99
2022-11-17T08:52:59.334Z,99.99
2022-11-17T08:53:59.549Z,99.99
2022-11-17T08:55:00.907Z,99.99
2022-11-17T08:56:01.083Z,99.99
2022-11-17T08:57:02.091Z,99.99
2022-11-17T08:58:02.661Z,99.99
2022-11-17T08:59:03.603Z,99.99
2022-11-17T09:00:04.101Z,99.99
2022-11-17T09:01:10.646Z,99.99
2022-11-17T09:02:05.637Z,99.99
2022-11-17T09:03:05.837Z,99.99
2022-11-17T09:04:07.172Z,99.99
2022-11-17T09:05:07.422Z,99.99
2022-11-17T09:06:08.040Z,99.99
2022-11-17T09:07:09.087Z,99.99
2022-11-17T09:08:45.324Z,99.99
2022-11-17T09:09:09.884Z,99.99
2022-11-17T09:10:09.513Z,99.99
2022-11-17T09:11:09.889Z,99.99
2022-11-17T09:12:10.101Z,99.13
2022-11-17T09:13:14.801Z,98.27
2022-11-17T09:14:11.627Z,99.13
2022-11-17T09:15:12.599Z,98.51
2022-11-17T09:16:13.522Z,97.85
2022-11-17T09:17:13.930Z,97.94
2022-11-17T09:18:14.461Z,97.08
2022-11-17T09:19:15.075Z,96.8
2022-11-17T09:20:15.444Z,97.37
2022-11-17T09:21:16.674Z,96.32
2022-11-17T09:22:17.205Z,95.94
2022-11-17T09:23:17.755Z,95.37
2022-11-17T09:24:18.269Z,94.93
2022-11-17T09:25:19.059Z,94.93
2022-11-17T09:26:19.618Z,94.17
2022-11-17T09:27:19.968Z,93.88
2022-11-17T09:28:20.470Z,92.74
2022-11-17T09:29:21.110Z,92.55
2022-11-17T09:30:21.739Z,91.74
2022-11-17T09:31:22.297Z,91.64
2022-11-17T09:32:22.953Z,92.6
2022-11-17T09:33:23.664Z,91.74
2022-11-17T09:34:24.580Z,91.26
2022-11-17T09:35:24.836Z,91.55
2022-11-17T09:36:25.793Z,91.45
2022-11-17T09:37:26.063Z,90.31
2022-11-17T09:38:26.653Z,90.21
2022-11-17T09:39:27.373Z,90.88
2022-11-17T09:40:27.381Z,89.25
2022-11-17T09:41:27.667Z,88.92
2022-11-17T09:42:28.934Z,87.87
2022-11-17T09:43:29.183Z,89.11
2022-11-17T09:44:30.091Z,89.3
2022-11-17T09:45:30.016Z,89.11
2022-11-17T09:46:30.960Z,88.2
2022-11-17T09:47:31.487Z,86.96
2022-11-17T09:48:46.750Z,86.19
2022-11-17T09:49:33.320Z,86.29
2022-11-17T09:50:34.011Z,86.38
2022-11-17T09:51:34.212Z,85.81
2022-11-17T09:52:35.139Z,85.62
2022-11-17T09:53:35.962Z,85.52
2022-11-17T09:54:36.343Z,86.38
2022-11-17T09:55:40.059Z,86.19
2022-11-17T09:56:38.270Z,86.19
2022-11-17T09:57:38.939Z,86.67
2022-11-17T09:58:39.860Z,86.57
2022-11-17T09:59:39.182Z,87.05
2022-11-17T10:00:39.377Z,88.77
2022-11-17T10:01:40.075Z,88.77
2022-11-17T10:02:40.931Z,88.77
2022-11-17T10:03:49.315Z,88.77
2022-11-17T10:04:42.203Z,88.77
2022-11-17T10:05:42.879Z,88.87
2022-11-17T10:06:43.826Z,87.53
2022-11-17T10:07:43.939Z,86.57
2022-11-17T10:08:44.031Z,87.24
2022-11-17T10:09:44.691Z,87.57
2022-11-17T10:10:46.100Z,87.76
2022-11-17T10:11:46.803Z,86.71
2022-11-17T10:12:47.074Z,85.66
2022-11-17T10:13:48.389Z,83.69
2022-11-17T10:14:49.136Z,83.98
2022-11-17T10:15:49.644Z,83.12
2022-11-17T10:16:50.591Z,83.6
2022-11-17T10:17:51.487Z,83.69
2022-11-17T10:18:52.088Z,82.35
2022-11-17T10:19:52.436Z,81.73
2022-11-17T10:20:53.353Z,81.25
2022-11-17T10:21:54.077Z,79.08
2022-11-17T10:22:55.079Z,78.42
2022-11-17T10:23:55.720Z,78.64
2022-11-17T10:24:56.227Z,79.51
2022-11-17T10:25:56.874Z,78.55
2022-11-17T10:26:57.482Z,77.78
2022-11-17T10:27:58.137Z,76.82
2022-11-17T10:29:01.769Z,76.92
2022-11-17T10:29:59.584Z,77.4
2022-11-17T10:31:00.221Z,77.36
2022-11-17T10:32:00.856Z,78.42
2022-11-17T10:33:01.412Z,78.51
2022-11-17T10:34:01.723Z,78.7
2022-11-17T10:35:01.923Z,79.24
2022-11-17T10:36:02.636Z,80.67
2022-11-17T10:37:02.936Z,81.54
2022-11-17T10:38:04.324Z,82.2
2022-11-17T10:39:05.319Z,82.64
2022-11-17T10:40:06.120Z,82.54
2022-11-17T10:41:06.822Z,81.88
2022-11-17T10:42:07.029Z,82.45
2022-11-17T10:43:07.537Z,81.11
2022-11-17T10:44:07.450Z,80.92
2022-11-17T10:45:08.091Z,81.78
2022-11-17T10:46:08.581Z,82.12
2022-11-17T10:47:08.556Z,82.22
2022-11-17T10:48:08.678Z,83.08
2022-11-17T10:49:09.044Z,82.98
2022-11-17T10:50:10.321Z,83.08
2022-11-17T10:51:10.742Z,83.08
2022-11-17T10:52:10.802Z,83.42
2022-11-17T10:53:18.049Z,83.13
2022-11-17T10:54:12.713Z,83.33
2022-11-17T10:55:13.340Z,84.19
2022-11-17T10:56:14.306Z,84.66
2022-11-17T10:57:14.563Z,84.76
2022-11-17T10:58:14.782Z,84.19
2022-11-17T10:59:15.001Z,84.76
2022-11-17T11:00:15.910Z,85.14
2022-11-17T11:01:16.656Z,84.85
2022-11-17T11:02:16.779Z,84.85
2022-11-17T11:03:17.006Z,85.14
2022-11-17T11:04:17.247Z,86.19
2022-11-17T11:05:17.770Z,86.1
2022-11-17T11:06:22.752Z,86.67
2022-11-17T11:07:18.874Z,85.33
2022-11-17T11:08:19.564Z,85.14
2022-11-17T11:09:20.591Z,85.33
2022-11-17T11:10:21.032Z,85.29
2022-11-17T11:11:22.057Z,86.29
2022-11-17T11:12:23.110Z,86.72
2022-11-17T11:13:23.619Z,86.72
2022-11-17T11:14:23.839Z,86.15
2022-11-17T11:15:23.743Z,86.53
2022-11-17T11:16:24.946Z,86.53
2022-11-17T11:17:25.871Z,87.01
2022-11-17T11:18:26.369Z,87.68
2022-11-17T11:19:27.164Z,87.77
2022-11-17T11:20:28.063Z,87.48
2022-11-17T11:21:28.755Z,88.34
2022-11-17T11:22:29.249Z,88.73
2022-11-17T11:23:29.747Z,89.3
2022-11-17T11:24:29.941Z,89.39
2022-11-17T11:25:30.560Z,89.3
2022-11-17T11:26:30.748Z,89.68
2022-11-17T11:27:31.387Z,89.87
2022-11-17T11:28:32.331Z,89.68
2022-11-17T11:29:32.788Z,89.97
2022-11-17T11:30:33.040Z,91.21
2022-11-17T11:31:34.108Z,90.73
2022-11-17T11:32:34.330Z,91.11
2022-11-17T11:33:35.032Z,90.92
2022-11-17T11:34:35.675Z,91.21
2022-11-17T11:35:36.213Z,90.92
2022-11-17T11:36:36.440Z,90.83
2022-11-17T11:37:36.727Z,91.88
2022-11-17T11:38:37.663Z,92.16
2022-11-17T11:39:38.361Z,91.97
2022-11-17T11:40:38.913Z,91.78
2022-11-17T11:41:39.247Z,91.78
2022-11-17T11:42:39.170Z,92.16
2022-11-17T11:43:39.677Z,93.5
2022-11-17T11:44:39.869Z,93.6
2022-11-17T11:45:40.808Z,92.02
2022-11-17T11:46:41.739Z,90.64
2022-11-17T11:47:42.377Z,90.01
2022-11-17T11:48:43.312Z,90.88
2022-11-17T11:49:43.805Z,90.97
2022-11-17T11:50:47.428Z,91.16
2022-11-17T11:51:45.731Z,90.59
2022-11-17T11:52:46.233Z,88.87
2022-11-17T11:53:46.883Z,87.62
2022-11-17T11:54:52.934Z,87.15
2022-11-17T11:55:48.478Z,87.15
2022-11-17T11:56:48.586Z,86.96
2022-11-17T11:57:49.942Z,87.34
2022-11-17T11:58:50.172Z,87.91
2022-11-17T11:59:50.439Z,86.86
2022-11-17T12:00:50.808Z,86.67
2022-11-17T12:01:51.040Z,87.43
2022-11-17T12:02:51.789Z,87.09
2022-11-17T12:03:52.269Z,87
2022-11-17T12:04:52.184Z,86.14
2022-11-17T12:05:53.202Z,87.09
2022-11-17T12:06:54.237Z,88.62
2022-11-17T12:07:53.714Z,88.24
2022-11-17T12:08:54.185Z,88.62
2022-11-17T12:09:55.108Z,88.81
2022-11-17T12:10:56.381Z,89.1
2022-11-17T12:11:56.912Z,89.39
2022-11-17T12:12:57.828Z,90.53
2022-11-17T12:13:59.989Z,90.92
2022-11-17T12:14:59.265Z,91.93
2022-11-17T12:16:00.521Z,92.88
2022-11-17T12:17:00.449Z,93.26
2022-11-17T12:18:00.793Z,94.12
2022-11-17T12:19:01.282Z,94.79
2022-11-17T12:20:03.582Z,93.74
2022-11-17T12:21:01.704Z,94.22
2022-11-17T12:22:02.399Z,94.79
2022-11-17T12:23:02.665Z,94.51
2022-11-17T12:24:03.294Z,94.51
2022-11-17T12:25:03.673Z,94.84
2022-11-17T12:26:04.609Z,95.51
2022-11-17T12:27:05.672Z,94.93
2022-11-17T12:28:05.813Z,94.65
2022-11-17T12:29:06.369Z,94.46
2022-11-17T12:30:06.596Z,93.6
2022-11-17T12:31:14.638Z,92.83
2022-11-17T12:32:07.954Z,91.97
2022-11-17T12:33:08.940Z,92.36
2022-11-17T12:34:09.537Z,92.07
2022-11-17T12:35:09.290Z,93.12
2022-11-17T12:36:09.620Z,93.41
2022-11-17T12:37:10.651Z,93.41
2022-11-17T12:38:11.629Z,93.41
2022-11-17T12:39:12.122Z,92.16
2022-11-17T12:40:12.058Z,91.11
2022-11-17T12:41:12.399Z,91.02
2022-11-17T12:42:13.221Z,91.69
2022-11-17T12:43:13.852Z,91.4
2022-11-17T12:44:14.736Z,92.83
2022-11-17T12:45:15.307Z,91.69
2022-11-17T12:46:15.505Z,91.21
2022-11-17T12:47:16.732Z,90.54
2022-11-17T12:48:38.636Z,91.02
2022-11-17T12:49:18.477Z,91.4
2022-11-17T12:50:18.527Z,91.97
2022-11-17T12:51:18.769Z,91.11
2022-11-17T12:52:19.083Z,90.64
2022-11-17T12:53:19.578Z,89.97
2022-11-17T12:54:20.061Z,89.3
2022-11-17T12:55:20.028Z,89.68
2022-11-17T12:56:20.545Z,88.92
2022-11-17T12:57:20.811Z,88.82
2022-11-17T12:58:21.711Z,88.63
2022-11-17T12:59:22.861Z,87.58
2022-11-17T13:00:23.303Z,87.87
2022-11-17T13:01:24.161Z,88.34